Stations météo

réclame
Mon MeteoGroup
Lampedusa, Italie (16490): Température de l'air & dewpoint: 19.02.2018 18:00:00 - 25.02.2018 18:00:00 (CET)Lampedusa, Italie (16490): Vitesse du vent: 19.02.2018 18:00:00 - 25.02.2018 18:00:00 (CET)Lampedusa, Italie (16490): Direction du vent: 19.02.2018 18:00:00 - 25.02.2018 18:00:00 (CET)Lampedusa, Italie (16490): visibility: 19.02.2018 18:00:00 - 25.02.2018 18:00:00 (CET)
Date & Time tt [°C] td [°C] ff [km/h] ff [knt] dd vv [km]
25.02.2018 18:00:00 13,0 5,0 28 15 NNW 10
25.02.2018 17:00:00 14,0 4,0 35 19 NW 10
25.02.2018 16:00:00 14,0 7,0 29 16 NNW 10
25.02.2018 15:00:00 14,0 7,0 29 16 NNW 10
25.02.2018 14:00:00 14,0 7,0 37 20 NNW 10
25.02.2018 13:00:00 14,0 8,0 37 20 NNW 10
25.02.2018 12:00:00 14,0 9,0 41 22 NNW 10
25.02.2018 11:00:00 14,0 10,0 44 24 NNW 10
25.02.2018 10:00:00 14,0 11,0 39 21 NNW 10
25.02.2018 09:00:00 15,0 13,0 18 10 NNW 10
25.02.2018 08:00:00 15,0 13,0 11 6 NNW 10
25.02.2018 07:00:00 15,0 13,0 11 6 NNE 10
25.02.2018 06:00:00 15,0 13,0 13 7 NE 10
25.02.2018 05:00:00 - - - - - -
25.02.2018 04:00:00 - - - - - -
25.02.2018 03:00:00 - - - - - -
25.02.2018 02:00:00 - - - - - -
25.02.2018 01:00:00 - - - - - -
25.02.2018 00:00:00 - - - - - -
24.02.2018 23:00:00 - - - - - -
24.02.2018 22:00:00 15,0 11,0 22 12 ESE 10
24.02.2018 21:00:00 15,0 11,0 18 10 ESE 10
24.02.2018 20:00:00 15,0 10,0 18 10 ESE 10
24.02.2018 19:00:00 15,0 10,0 18 10 SE 10
24.02.2018 18:00:00 15,0 9,0 24 13 SSE 10
24.02.2018 17:00:00 15,0 10,0 22 12 SSE 10
24.02.2018 16:00:00 15,0 9,0 24 13 SSE 10
24.02.2018 15:00:00 15,0 9,0 21 11 SSE 10
24.02.2018 14:00:00 15,0 7,0 16 9 S 10
24.02.2018 13:00:00 15,0 8,0 15 8 S 10
24.02.2018 12:00:00 14,0 6,0 15 8 S 10
24.02.2018 11:00:00 14,0 6,0 8 4 SSW 10
24.02.2018 10:00:00 14,0 6,0 9 5 SW 10
24.02.2018 09:00:00 13,0 6,0 13 7 SW 10
24.02.2018 08:00:00 11,0 6,0 9 5 WNW 10
24.02.2018 07:00:00 10,0 5,0 11 6 WNW 10
24.02.2018 06:00:00 10,0 5,0 13 7 WNW 10
24.02.2018 05:00:00 - - - - - -
24.02.2018 04:00:00 - - - - - -
24.02.2018 03:00:00 - - - - - -
24.02.2018 02:00:00 - - - - - -
24.02.2018 01:00:00 - - - - - -
24.02.2018 00:00:00 - - - - - -
23.02.2018 23:00:00 - - - - - -
23.02.2018 22:00:00 13,0 6,0 21 11 WNW 10
23.02.2018 21:00:00 12,0 6,0 24 13 W 10
23.02.2018 20:00:00 13,0 5,0 22 12 W 10
23.02.2018 19:00:00 13,0 6,0 26 14 W 10
23.02.2018 18:00:00 13,0 5,0 29 16 W 10
23.02.2018 17:00:00 13,0 5,0 31 17 W 10
23.02.2018 16:00:00 13,0 6,0 31 17 W 10
23.02.2018 15:00:00 13,0 7,0 37 20 W 10
23.02.2018 14:00:00 13,0 7,0 22 12 WNW 10
23.02.2018 13:00:00 12,0 9,0 21 11 WNW 10
23.02.2018 12:00:00 10,0 7,0 35 19 WNW 10
23.02.2018 11:00:00 10,0 8,0 24 13 WNW 9
23.02.2018 10:00:00 9,0 7,0 42 23 WNW 4,0
23.02.2018 09:00:00 10,0 7,0 24 13 NW 8
23.02.2018 08:00:00 11,0 7,0 31 17 NNW 10
23.02.2018 07:00:00 10,0 7,0 42 23 N 10
23.02.2018 06:00:00 10,0 8,0 44 24 NW 10
23.02.2018 05:00:00 - - - - - -
23.02.2018 04:00:00 - - - - - -
23.02.2018 03:00:00 - - - - - -
23.02.2018 02:00:00 - - - - - -
23.02.2018 01:00:00 - - - - - -
23.02.2018 00:00:00 - - - - - -
22.02.2018 23:00:00 - - - - - -
22.02.2018 22:00:00 13,0 11,0 21 11 ENE 10
22.02.2018 21:00:00 13,0 11,0 18 10 NE 10
22.02.2018 20:00:00 13,0 10,0 21 11 NNE 10
22.02.2018 19:00:00 13,0 11,0 16 9 N 10
22.02.2018 18:00:00 14,0 11,0 16 9 NNE 10
22.02.2018 17:00:00 14,0 10,0 21 11 N 10
22.02.2018 16:00:00 14,0 11,0 18 10 N 10
22.02.2018 15:00:00 15,0 11,0 22 12 N 10
22.02.2018 14:00:00 16,0 11,0 24 13 SW 10
22.02.2018 13:00:00 16,0 11,0 29 16 SSW 10
22.02.2018 12:00:00 16,0 13,0 28 15 S 10
22.02.2018 11:00:00 16,0 13,0 29 16 S 10
22.02.2018 10:00:00 16,0 13,0 28 15 S 10
22.02.2018 09:00:00 15,0 12,0 28 15 S 10
22.02.2018 08:00:00 15,0 12,0 29 16 S 10
22.02.2018 07:00:00 14,0 11,0 31 17 SSE 10
22.02.2018 06:00:00 14,0 10,0 34 18 SSE 10
22.02.2018 05:00:00 - - - - - -
22.02.2018 04:00:00 - - - - - -
22.02.2018 03:00:00 - - - - - -
22.02.2018 02:00:00 - - - - - -
22.02.2018 01:00:00 - - - - - -
22.02.2018 00:00:00 - - - - - -
21.02.2018 23:00:00 - - - - - -
21.02.2018 22:00:00 12,0 6,0 5 3 SSE 10
21.02.2018 21:00:00 12,0 5,0 2 1 - 10
21.02.2018 20:00:00 12,0 5,0 4 2 WSW 10
21.02.2018 19:00:00 12,0 5,0 5 3 WSW 10
21.02.2018 18:00:00 13,0 5,0 9 5 WNW 10
21.02.2018 17:00:00 13,0 5,0 18 10 NW 10
21.02.2018 16:00:00 13,0 6,0 18 10 WNW 10
21.02.2018 15:00:00 13,0 5,0 24 13 NW 10
21.02.2018 14:00:00 14,0 6,0 28 15 WNW 10
21.02.2018 13:00:00 14,0 7,0 26 14 NW 10
21.02.2018 12:00:00 14,0 7,0 28 15 WNW 10
21.02.2018 11:00:00 14,0 6,0 31 17 NW 10
21.02.2018 10:00:00 13,0 6,0 29 16 WNW 10
21.02.2018 09:00:00 13,0 7,0 34 18 WNW 10
21.02.2018 08:00:00 12,0 6,0 26 14 WNW 10
21.02.2018 07:00:00 12,0 6,0 29 16 WNW 10
21.02.2018 06:00:00 12,0 6,0 31 17 WNW 10
21.02.2018 05:00:00 - - - - - -
21.02.2018 04:00:00 - - - - - -
21.02.2018 03:00:00 - - - - - -
21.02.2018 02:00:00 - - - - - -
21.02.2018 01:00:00 - - - - - -
21.02.2018 00:00:00 - - - - - -
20.02.2018 23:00:00 - - - - - -
20.02.2018 22:00:00 13,0 7,0 26 14 SSW 10
20.02.2018 21:00:00 12,0 7,0 18 10 S 10
20.02.2018 20:00:00 12,0 7,0 13 7 SSW 10
20.02.2018 19:00:00 12,0 6,0 8 4 WSW 10
20.02.2018 18:00:00 12,0 6,0 5 3 W 10
20.02.2018 17:00:00 13,0 6,0 15 8 WNW 10
20.02.2018 16:00:00 13,0 7,0 13 7 WNW 10
20.02.2018 15:00:00 14,0 8,0 16 9 WNW 10
20.02.2018 14:00:00 14,0 9,0 16 9 NW 10
20.02.2018 13:00:00 13,0 8,0 16 9 W 10
20.02.2018 12:00:00 12,0 9,0 13 7 W 10
20.02.2018 11:00:00 11,0 9,0 11 6 W 10
20.02.2018 10:00:00 12,0 9,0 16 9 NW 10
20.02.2018 09:00:00 13,0 9,0 22 12 NW 10
20.02.2018 08:00:00 13,0 8,0 11 6 WNW 10
20.02.2018 07:00:00 12,0 7,0 9 5 W 10
20.02.2018 06:00:00 12,0 7,0 13 7 W 10
20.02.2018 05:00:00 - - - - - -
20.02.2018 04:00:00 - - - - - -
20.02.2018 03:00:00 - - - - - -
20.02.2018 02:00:00 - - - - - -
20.02.2018 01:00:00 - - - - - -
20.02.2018 00:00:00 - - - - - -
19.02.2018 23:00:00 - - - - - -
19.02.2018 22:00:00 13,0 7,0 16 9 WNW 10
19.02.2018 21:00:00 13,0 8,0 15 8 NW 10
19.02.2018 20:00:00 13,0 8,0 15 8 NW 10
19.02.2018 19:00:00 13,0 8,0 18 10 NW 10
19.02.2018 18:00:00 14,0 8,0 21 11 NW 10

tt = Température de l'air
td = dewpoint
ff = Vitesse du vent
dd = Direction du vent
vv = visibility

stations d'obs. à proximité